Time;durP1;ratioP1;P1;durP2;ratioP2;P2;SDS_P1;SDS_P2;PMS_P1;PMS_P2;Temp;Humidity;BMP_temperature;BMP_pressure;BME280_temperature;BME280_humidity;BME280_pressure;Samples;Min_cycle;Max_cycle;Signal;HPM_P1;HPM_P2
2021/08/29 00:02:25;;;;;;;18.67;4.95;;;43.70;28.40;;;;;;4928301;29;20078;-65
2021/08/29 00:04:52;;;;;;;21.27;5.32;;;43.70;29.60;;;;;;4927799;29;20064;-65
2021/08/29 00:07:18;;;;;;;14.02;4.57;;;43.80;28.40;;;;;;4931048;29;20072;-65
2021/08/29 00:09:45;;;;;;;13.00;4.22;;;43.90;28.40;;;;;;4928921;29;20104;-65
2021/08/29 00:12:12;;;;;;;20.20;4.70;;;43.90;28.40;;;;;;4931381;29;20092;-64
2021/08/29 00:14:38;;;;;;;13.75;4.93;;;43.60;28.80;;;;;;4929103;29;20511;-63
2021/08/29 00:17:05;;;;;;;24.02;4.57;;;43.60;28.30;;;;;;4929714;29;20179;-64
2021/08/29 00:19:32;;;;;;;22.15;4.30;;;43.50;28.60;;;;;;4929969;29;20112;-63
2021/08/29 00:21:58;;;;;;;17.27;4.63;;;43.50;28.20;;;;;;4913275;29;20071;-66
2021/08/29 00:24:25;;;;;;;13.57;4.65;;;43.50;28.80;;;;;;4930421;29;20083;-66
2021/08/29 00:26:51;;;;;;;22.80;6.13;;;43.40;29.80;;;;;;4930723;29;20547;-64
2021/08/29 00:29:18;;;;;;;17.48;4.30;;;43.40;30.10;;;;;;4932368;29;20117;-63
2021/08/29 00:31:45;;;;;;;16.48;4.50;;;43.30;30.60;;;;;;4929570;29;20076;-63
2021/08/29 00:34:11;;;;;;;13.85;4.38;;;43.10;30.30;;;;;;4927537;29;20102;-63
2021/08/29 00:36:38;;;;;;;14.40;4.43;;;43.00;30.60;;;;;;4929951;29;20100;-63
2021/08/29 00:39:04;;;;;;;19.38;4.32;;;42.90;30.90;;;;;;4928154;29;20487;-64
2021/08/29 00:41:31;;;;;;;16.58;4.47;;;42.80;30.80;;;;;;4930129;29;20525;-64
2021/08/29 00:43:58;;;;;;;23.35;3.97;;;42.80;31.20;;;;;;4928953;29;20084;-64
2021/08/29 00:46:24;;;;;;;13.13;3.58;;;42.70;30.70;;;;;;4929066;29;20152;-64
2021/08/29 00:48:52;;;;;;;14.13;4.10;;;42.60;30.20;;;;;;4928606;29;21034;-64
2021/08/29 00:51:19;;;;;;;10.82;3.67;;;42.40;30.60;;;;;;4923335;29;20655;-64
2021/08/29 00:53:50;;;;;;;18.55;3.78;;;42.30;30.10;;;;;;4928173;29;20076;-64
2021/08/29 00:56:20;;;;;;;21.02;4.00;;;42.20;30.30;;;;;;4927746;29;20097;-63
2021/08/29 00:58:54;;;;;;;19.83;3.83;;;42.20;30.20;;;;;;4930372;29;20117;-64
2021/08/29 01:01:23;;;;;;;9.25;3.55;;;42.10;30.20;;;;;;4928720;29;20084;-64
2021/08/29 01:03:56;;;;;;;9.77;3.88;;;42.10;30.40;;;;;;4929984;29;20088;-64
2021/08/29 01:06:44;;;;;;;17.85;4.20;;;42.00;30.60;;;;;;4927307;29;20073;-62
2021/08/29 01:09:13;;;;;;;11.40;3.53;;;41.90;30.00;;;;;;4929175;29;20773;-63
2021/08/29 01:11:45;;;;;;;41.88;4.15;;;41.80;30.60;;;;;;4926363;29;20175;-63
2021/08/29 01:14:15;;;;;;;9.63;3.60;;;41.80;30.00;;;;;;4926894;29;20460;-62
2021/08/29 01:16:47;;;;;;;10.23;3.40;;;41.80;30.10;;;;;;4927736;29;20108;-63
2021/08/29 01:19:17;;;;;;;15.95;3.38;;;41.70;30.40;;;;;;4909885;29;20072;-62
2021/08/29 01:21:48;;;;;;;13.02;4.00;;;41.50;30.10;;;;;;4927577;29;20081;-63
2021/08/29 01:24:20;;;;;;;19.20;3.60;;;41.40;30.10;;;;;;4926320;29;20171;-63
2021/08/29 01:26:53;;;;;;;10.52;3.17;;;41.40;30.20;;;;;;4928044;29;20099;-64
2021/08/29 01:29:27;;;;;;;13.30;3.33;;;41.40;29.90;;;;;;4928425;29;20084;-64
2021/08/29 01:31:53;;;;;;;7.90;3.13;;;41.40;29.60;;;;;;4924555;29;20080;-63
2021/08/29 01:34:20;;;;;;;11.10;3.22;;;41.30;29.70;;;;;;4927652;29;20088;-63
2021/08/29 01:36:51;;;;;;;14.18;3.35;;;41.30;29.60;;;;;;4928055;29;20096;-64
2021/08/29 01:39:19;;;;;;;11.02;3.83;;;41.30;29.60;;;;;;4929838;29;20096;-64
2021/08/29 01:41:49;;;;;;;13.32;3.80;;;41.20;29.60;;;;;;4927403;29;20087;-64
2021/08/29 01:44:17;;;;;;;21.55;4.05;;;41.20;29.50;;;;;;4926396;29;20136;-64
2021/08/29 01:46:44;;;;;;;30.73;6.03;;;41.20;30.20;;;;;;4925586;29;20091;-64
2021/08/29 01:49:12;;;;;;;73.55;8.65;;;41.10;34.00;;;;;;4928432;29;20116;-65
2021/08/29 01:51:41;;;;;;;62.20;7.13;;;40.80;35.90;;;;;;4923014;29;20080;-64
2021/08/29 01:54:07;;;;;;;45.95;6.13;;;40.60;36.60;;;;;;4943595;29;20743;-64
2021/08/29 01:56:57;;;;;;;65.22;7.85;;;40.40;37.00;;;;;;4928067;29;20283;-64
2021/08/29 01:59:23;;;;;;;65.38;7.75;;;40.20;37.50;;;;;;4925716;29;20076;-64
2021/08/29 02:01:50;;;;;;;55.03;7.20;;;40.10;37.90;;;;;;4929067;29;20084;-64
2021/08/29 02:04:16;;;;;;;67.13;9.23;;;40.00;38.10;;;;;;4925101;29;20139;-64
2021/08/29 02:06:47;;;;;;;60.95;8.23;;;39.80;38.50;;;;;;4926323;29;20092;-64
2021/08/29 02:09:15;;;;;;;82.28;9.82;;;39.60;38.90;;;;;;4927006;29;20111;-64
2021/08/29 02:11:50;;;;;;;81.30;9.43;;;39.60;39.40;;;;;;4928259;29;20090;-63
2021/08/29 02:14:29;;;;;;;157.80;13.15;;;39.40;39.90;;;;;;4927177;29;20091;-64
2021/08/29 02:16:58;;;;;;;144.27;14.10;;;39.30;41.10;;;;;;4926323;29;20100;-63
2021/08/29 02:19:27;;;;;;;136.45;13.98;;;39.10;42.30;;;;;;4927910;29;20085;-64
2021/08/29 02:21:55;;;;;;;138.18;12.85;;;38.90;43.00;;;;;;4928359;29;20087;-65
2021/08/29 02:24:30;;;;;;;127.93;13.15;;;38.70;43.70;;;;;;4928341;29;20376;-63
2021/08/29 02:26:58;;;;;;;127.78;12.98;;;38.70;44.00;;;;;;4929579;29;20075;-63
2021/08/29 02:29:25;;;;;;;100.47;10.05;;;38.60;44.20;;;;;;4930239;29;20080;-63
2021/08/29 02:31:53;;;;;;;105.55;10.63;;;38.60;43.10;;;;;;4927382;29;20076;-63
2021/08/29 02:34:19;;;;;;;98.72;10.88;;;38.50;43.40;;;;;;4927924;29;20076;-63
2021/08/29 02:36:49;;;;;;;98.32;11.45;;;38.40;43.10;;;;;;4925150;29;20556;-65
2021/08/29 02:39:18;;;;;;;99.80;10.75;;;38.30;42.50;;;;;;4917493;29;20069;-63
2021/08/29 02:41:48;;;;;;;82.05;10.30;;;38.20;42.40;;;;;;4927033;29;20644;-63
2021/08/29 02:44:16;;;;;;;79.47;9.30;;;38.20;42.60;;;;;;4923438;29;20077;-63
2021/08/29 02:46:43;;;;;;;94.07;9.20;;;38.10;42.60;;;;;;4926835;29;20463;-62
2021/08/29 02:49:10;;;;;;;86.50;8.98;;;38.00;42.50;;;;;;4926219;29;20117;-65
2021/08/29 02:51:37;;;;;;;75.90;9.85;;;37.90;42.70;;;;;;4924337;29;20084;-66
2021/08/29 02:54:04;;;;;;;72.32;8.25;;;37.90;42.50;;;;;;4927210;29;20084;-65
2021/08/29 02:56:33;;;;;;;69.13;8.05;;;37.80;42.50;;;;;;4924335;29;20602;-66
2021/08/29 02:59:00;;;;;;;76.63;7.75;;;37.70;42.30;;;;;;4929487;29;20182;-65
2021/08/29 03:01:30;;;;;;;71.35;8.80;;;37.60;41.40;;;;;;4927812;29;20470;-67
2021/08/29 03:03:57;;;;;;;78.88;8.25;;;37.60;41.40;;;;;;4927593;29;20076;-65
2021/08/29 03:06:23;;;;;;;65.45;8.57;;;37.50;41.70;;;;;;4929052;29;20207;-66
2021/08/29 03:08:50;;;;;;;59.15;7.88;;;37.50;42.00;;;;;;4927738;29;20431;-65
2021/08/29 03:11:21;;;;;;;60.95;8.07;;;37.40;42.70;;;;;;4926647;29;20523;-65
2021/08/29 03:13:49;;;;;;;81.70;8.05;;;37.30;43.10;;;;;;4929460;29;20072;-65
2021/08/29 03:16:17;;;;;;;70.35;9.15;;;37.20;43.40;;;;;;4926346;29;20092;-65
2021/08/29 03:18:47;;;;;;;90.38;10.15;;;37.10;43.60;;;;;;4927411;29;20080;-66
2021/08/29 03:21:14;;;;;;;79.28;9.20;;;37.10;43.30;;;;;;4930201;29;20080;-65
2021/08/29 03:23:40;;;;;;;92.07;9.57;;;37.10;43.60;;;;;;4926838;29;20112;-66
2021/08/29 03:26:07;;;;;;;80.55;11.18;;;37.10;44.10;;;;;;4928207;29;20482;-65
2021/08/29 03:28:34;;;;;;;88.93;11.60;;;37.00;44.50;;;;;;4928313;29;20081;-65
2021/08/29 03:31:00;;;;;;;96.13;12.13;;;37.00;44.50;;;;;;4928550;29;20088;-65
2021/08/29 03:33:29;;;;;;;97.20;14.38;;;36.90;44.50;;;;;;4926163;29;20085;-66
2021/08/29 03:35:56;;;;;;;86.07;13.82;;;36.90;44.90;;;;;;4923896;29;20104;-66
2021/08/29 03:38:23;;;;;;;104.25;13.02;;;36.90;44.90;;;;;;4928223;29;20079;-66
2021/08/29 03:40:51;;;;;;;78.97;10.43;;;36.80;44.80;;;;;;4925978;29;20135;-65
2021/08/29 03:43:18;;;;;;;86.60;11.05;;;36.80;45.20;;;;;;4928547;29;20092;-62
2021/08/29 03:45:45;;;;;;;115.47;15.73;;;36.80;45.70;;;;;;4927377;29;20108;-62
2021/08/29 03:48:11;;;;;;;81.35;13.50;;;36.70;46.20;;;;;;4931532;29;20143;-63
2021/08/29 03:50:38;;;;;;;81.32;12.73;;;36.70;46.60;;;;;;4921057;29;20108;-62
2021/08/29 03:53:06;;;;;;;79.60;11.15;;;36.60;46.80;;;;;;4928132;29;20179;-63
2021/08/29 03:55:33;;;;;;;77.13;11.68;;;36.50;47.50;;;;;;4928865;29;20168;-62
2021/08/29 03:58:01;;;;;;;69.28;11.50;;;36.50;48.30;;;;;;4928220;29;20504;-60
2021/08/29 04:00:28;;;;;;;64.35;11.50;;;36.40;48.90;;;;;;4915598;29;20077;-62
2021/08/29 04:02:55;;;;;;;74.93;11.85;;;36.40;49.40;;;;;;4926998;29;20084;-62
2021/08/29 04:05:22;;;;;;;54.47;11.32;;;36.30;49.80;;;;;;4926993;29;20131;-64
2021/08/29 04:07:52;;;;;;;62.28;11.75;;;36.20;50.10;;;;;;4928071;29;20099;-64
2021/08/29 04:10:20;;;;;;;50.35;9.80;;;36.10;50.20;;;;;;4930261;29;20096;-64
2021/08/29 04:12:48;;;;;;;50.40;9.30;;;36.00;50.30;;;;;;4931019;29;20076;-63
2021/08/29 04:15:16;;;;;;;43.42;9.50;;;36.00;50.50;;;;;;4929070;29;20076;-62
2021/08/29 04:17:44;;;;;;;36.42;9.10;;;36.00;50.60;;;;;;4926743;29;20434;-62
2021/08/29 04:20:14;;;;;;;44.67;9.05;;;35.90;50.80;;;;;;4926599;29;20103;-64
2021/08/29 04:22:41;;;;;;;38.55;8.55;;;35.90;50.50;;;;;;4925967;29;20215;-63
2021/08/29 04:25:08;;;;;;;34.28;7.07;;;35.90;50.80;;;;;;4928030;29;20072;-62
2021/08/29 04:27:35;;;;;;;36.53;8.15;;;35.90;50.30;;;;;;4931344;29;20079;-63
2021/08/29 04:30:02;;;;;;;40.63;7.40;;;35.80;50.10;;;;;;4932945;29;20095;-64
2021/08/29 04:32:30;;;;;;;30.02;5.82;;;35.70;49.90;;;;;;4926747;29;20175;-64
2021/08/29 04:34:57;;;;;;;32.15;6.28;;;35.70;49.90;;;;;;4931404;29;20457;-64
2021/08/29 04:37:23;;;;;;;35.45;6.95;;;35.70;49.80;;;;;;4917548;29;20119;-63
2021/08/29 04:39:50;;;;;;;27.63;7.78;;;35.70;49.90;;;;;;4926921;29;20080;-64
2021/08/29 04:42:17;;;;;;;30.23;7.00;;;35.70;49.90;;;;;;4931297;29;20083;-62
2021/08/29 04:44:43;;;;;;;33.05;7.22;;;35.60;49.80;;;;;;4930853;29;20077;-65
2021/08/29 04:47:10;;;;;;;30.60;7.72;;;35.50;49.90;;;;;;4926590;29;20088;-63
2021/08/29 04:49:37;;;;;;;23.85;6.78;;;35.50;50.10;;;;;;4928698;29;20170;-66
2021/08/29 04:52:04;;;;;;;21.88;5.63;;;35.40;50.00;;;;;;4919277;29;20081;-62
2021/08/29 04:54:30;;;;;;;25.38;5.60;;;35.50;50.30;;;;;;4924473;29;20115;-63
2021/08/29 04:56:57;;;;;;;23.80;5.93;;;35.50;50.10;;;;;;4927131;29;20096;-62
2021/08/29 04:59:23;;;;;;;27.17;5.40;;;35.40;49.80;;;;;;4931176;29;20477;-62
2021/08/29 05:01:50;;;;;;;36.72;6.50;;;35.40;49.80;;;;;;4929364;29;20081;-63
2021/08/29 05:04:16;;;;;;;20.70;5.10;;;35.40;49.90;;;;;;4930783;29;20088;-61
2021/08/29 05:06:43;;;;;;;21.98;4.93;;;35.40;49.80;;;;;;4928411;29;20076;-62
2021/08/29 05:09:09;;;;;;;21.23;4.28;;;35.40;49.60;;;;;;4929446;29;20530;-60
2021/08/29 05:11:36;;;;;;;19.75;4.28;;;35.40;49.40;;;;;;4924973;29;20096;-62
2021/08/29 05:14:02;;;;;;;19.42;3.97;;;35.30;49.20;;;;;;4931923;29;20084;-64
2021/08/29 05:16:29;;;;;;;28.85;4.43;;;35.30;49.00;;;;;;4925854;29;20108;-62
2021/08/29 05:18:56;;;;;;;22.45;4.60;;;35.30;48.80;;;;;;4927757;29;20088;-61
2021/08/29 05:21:22;;;;;;;25.27;4.22;;;35.30;48.80;;;;;;4927193;29;20593;-61
2021/08/29 05:23:49;;;;;;;15.02;4.70;;;35.30;48.60;;;;;;4928035;29;20097;-62
2021/08/29 05:26:15;;;;;;;21.35;5.03;;;35.30;48.50;;;;;;4926306;29;20080;-61
2021/08/29 05:28:42;;;;;;;22.27;5.18;;;35.30;48.10;;;;;;4929157;29;20082;-62
2021/08/29 05:31:08;;;;;;;24.77;4.50;;;35.30;47.70;;;;;;4927812;29;20082;-62
2021/08/29 05:33:36;;;;;;;22.67;5.00;;;35.20;47.40;;;;;;4928407;29;20115;-62
2021/08/29 05:36:02;;;;;;;26.75;4.65;;;35.20;47.00;;;;;;4929350;29;20095;-63
2021/08/29 05:38:29;;;;;;;15.35;3.75;;;35.20;46.20;;;;;;4927472;29;20080;-64
2021/08/29 05:40:55;;;;;;;25.98;4.60;;;35.30;46.10;;;;;;4927024;29;20084;-63
2021/08/29 05:43:22;;;;;;;20.20;4.75;;;35.30;45.90;;;;;;4923705;29;20080;-63
2021/08/29 05:45:48;;;;;;;23.15;4.63;;;35.40;45.70;;;;;;4928690;29;20088;-64
2021/08/29 05:48:15;;;;;;;25.38;4.32;;;35.50;45.70;;;;;;4927544;29;20231;-63
2021/08/29 05:50:41;;;;;;;14.90;4.25;;;35.50;45.10;;;;;;4928393;29;20518;-63
2021/08/29 05:53:08;;;;;;;21.33;4.30;;;35.50;44.70;;;;;;4928849;29;20080;-63
2021/08/29 05:55:34;;;;;;;16.45;3.95;;;35.60;44.30;;;;;;4929444;29;20165;-63
2021/08/29 05:58:01;;;;;;;16.10;3.78;;;35.50;43.80;;;;;;4930475;29;20734;-63
2021/08/29 06:00:28;;;;;;;12.93;3.80;;;35.60;43.90;;;;;;4912724;29;20076;-63
2021/08/29 06:02:54;;;;;;;17.52;3.47;;;35.50;43.70;;;;;;4932046;29;20108;-63
2021/08/29 06:05:21;;;;;;;14.88;3.60;;;35.60;43.60;;;;;;4925111;29;20080;-63
2021/08/29 06:07:47;;;;;;;17.45;4.53;;;35.50;43.40;;;;;;4926160;29;20080;-63
2021/08/29 06:10:14;;;;;;;19.05;4.90;;;35.60;43.10;;;;;;4925678;29;20080;-61
2021/08/29 06:12:41;;;;;;;24.42;7.43;;;35.60;42.80;;;;;;4927135;29;20080;-63
2021/08/29 06:15:08;;;;;;;20.33;9.40;;;35.60;42.40;;;;;;4928669;29;20076;-62
2021/08/29 06:17:35;;;;;;;21.15;7.70;;;35.70;41.70;;;;;;4931710;29;20096;-63
2021/08/29 06:20:02;;;;;;;38.17;6.95;;;35.70;42.20;;;;;;4927987;29;20073;-63
2021/08/29 06:22:29;;;;;;;34.15;5.80;;;35.60;51.50;;;;;;4930117;29;20083;-64
2021/08/29 06:24:55;;;;;;;32.22;5.18;;;35.40;51.90;;;;;;4926307;29;20088;-63
2021/08/29 06:27:22;;;;;;;36.03;5.25;;;35.30;52.80;;;;;;4917411;29;20069;-64
2021/08/29 06:29:48;;;;;;;44.67;6.55;;;35.20;54.50;;;;;;4930627;29;20429;-65
2021/08/29 06:32:15;;;;;;;48.78;6.05;;;34.90;58.70;;;;;;4930124;29;20089;-64
2021/08/29 06:34:41;;;;;;;24.45;4.97;;;34.80;59.30;;;;;;4928495;29;20072;-64
2021/08/29 06:37:08;;;;;;;40.40;7.05;;;34.70;59.20;;;;;;4927094;29;20183;-64
2021/08/29 06:39:34;;;;;;;27.63;6.65;;;34.60;61.30;;;;;;4923959;29;20080;-65
2021/08/29 06:42:01;;;;;;;33.35;6.00;;;34.40;61.60;;;;;;4924405;29;20089;-65
2021/08/29 06:44:28;;;;;;;40.80;6.78;;;34.30;61.30;;;;;;4929167;29;20481;-65
2021/08/29 06:46:54;;;;;;;37.35;8.27;;;34.20;62.30;;;;;;4929893;29;20087;-64
2021/08/29 06:49:21;;;;;;;34.53;6.82;;;34.20;63.80;;;;;;4926991;29;20119;-64
2021/08/29 06:51:47;;;;;;;31.30;5.90;;;34.00;65.20;;;;;;4927582;29;20085;-64
2021/08/29 06:54:15;;;;;;;31.90;6.32;;;34.00;66.10;;;;;;4925182;29;20080;-64
2021/08/29 06:56:41;;;;;;;23.15;5.30;;;33.90;66.00;;;;;;4924178;29;20188;-66
2021/08/29 06:59:08;;;;;;;24.90;5.68;;;33.90;65.60;;;;;;4926137;29;20083;-64
2021/08/29 07:01:35;;;;;;;29.10;5.78;;;33.90;66.90;;;;;;4930408;29;20083;-65
2021/08/29 07:04:01;;;;;;;32.35;5.13;;;33.80;69.20;;;;;;4913774;29;20111;-64
2021/08/29 07:06:28;;;;;;;39.38;6.50;;;33.60;70.70;;;;;;4926259;29;20116;-65
2021/08/29 07:08:54;;;;;;;39.97;6.68;;;33.50;72.50;;;;;;4928931;29;20076;-65
2021/08/29 07:11:21;;;;;;;35.40;8.45;;;33.40;73.20;;;;;;4928925;29;20080;-65
2021/08/29 07:13:47;;;;;;;38.30;9.73;;;33.20;74.00;;;;;;4927888;29;20080;-65
2021/08/29 07:16:14;;;;;;;59.97;12.57;;;33.20;74.50;;;;;;4929505;29;20096;-64
2021/08/29 07:18:40;;;;;;;63.40;15.90;;;33.10;74.70;;;;;;4932749;29;20136;-65
2021/08/29 07:21:07;;;;;;;63.70;16.90;;;33.10;75.70;;;;;;4928271;29;20071;-64
2021/08/29 07:23:33;;;;;;;45.65;14.52;;;32.90;76.00;;;;;;4915411;29;20104;-65
2021/08/29 07:26:00;;;;;;;33.42;11.00;;;32.90;76.10;;;;;;4932576;29;20159;-65
2021/08/29 07:28:26;;;;;;;30.90;8.02;;;32.90;76.20;;;;;;4931032;29;20083;-64
2021/08/29 07:30:53;;;;;;;28.02;5.72;;;32.90;76.30;;;;;;4935037;29;20566;-64
2021/08/29 07:33:20;;;;;;;32.85;5.53;;;32.90;76.50;;;;;;4931674;29;20080;-65
2021/08/29 07:35:46;;;;;;;21.02;4.45;;;32.80;76.60;;;;;;4929959;29;20076;-65
2021/08/29 07:38:13;;;;;;;19.77;4.07;;;32.80;76.90;;;;;;4929994;29;20466;-65
2021/08/29 07:40:39;;;;;;;21.73;4.55;;;32.80;76.70;;;;;;4945842;28;20531;-65
2021/08/29 07:43:06;;;;;;;26.05;4.60;;;32.80;76.00;;;;;;4928024;29;21545;-65
2021/08/29 07:45:32;;;;;;;20.00;4.30;;;32.70;75.30;;;;;;4933496;29;20090;-65
2021/08/29 07:47:59;;;;;;;24.92;4.43;;;32.70;75.50;;;;;;4930326;29;20108;-65
2021/08/29 07:50:26;;;;;;;23.55;4.72;;;32.70;75.30;;;;;;4931758;29;20080;-65
2021/08/29 07:52:52;;;;;;;17.83;4.28;;;32.70;74.50;;;;;;4928764;29;20079;-65
2021/08/29 07:55:19;;;;;;;20.23;4.10;;;32.70;74.30;;;;;;4929760;29;20561;-65
2021/08/29 07:57:46;;;;;;;16.75;4.13;;;32.80;74.70;;;;;;4932387;29;20100;-66
2021/08/29 08:00:13;;;;;;;24.92;4.50;;;32.80;72.60;;;;;;4934093;29;20081;-65
2021/08/29 08:02:39;;;;;;;16.85;4.00;;;32.90;70.40;;;;;;4930646;29;20612;-65
2021/08/29 08:05:06;;;;;;;22.67;4.57;;;33.00;68.90;;;;;;4930361;29;20077;-64
2021/08/29 08:07:33;;;;;;;20.10;4.75;;;33.10;68.70;;;;;;4932985;29;20104;-65
2021/08/29 08:09:59;;;;;;;18.00;4.15;;;33.00;68.20;;;;;;4931656;29;20087;-65
2021/08/29 08:12:26;;;;;;;30.60;4.45;;;33.10;67.30;;;;;;4931667;29;20073;-65
2021/08/29 08:14:52;;;;;;;15.57;3.80;;;33.10;66.30;;;;;;4929800;29;20092;-65
2021/08/29 08:17:19;;;;;;;16.85;4.50;;;33.20;64.80;;;;;;4928710;29;20152;-65
2021/08/29 08:19:45;;;;;;;18.40;4.47;;;33.20;63.90;;;;;;4928538;29;20068;-65
2021/08/29 08:22:12;;;;;;;15.85;4.30;;;33.20;63.30;;;;;;4929332;29;20105;-64
2021/08/29 08:24:38;;;;;;;15.18;4.25;;;33.20;61.00;;;;;;4929298;29;20072;-65
2021/08/29 08:27:05;;;;;;;17.42;4.40;;;33.30;60.10;;;;;;4930682;29;20076;-65
2021/08/29 08:29:32;;;;;;;17.00;4.18;;;33.40;59.10;;;;;;4927181;29;20076;-65
2021/08/29 08:31:58;;;;;;;24.13;4.35;;;33.40;58.00;;;;;;4934899;29;20533;-65
2021/08/29 08:34:25;;;;;;;18.05;4.82;;;33.50;57.60;;;;;;4932558;29;20080;-65
2021/08/29 08:36:52;;;;;;;24.58;5.30;;;33.50;57.10;;;;;;4928420;29;20126;-65
2021/08/29 08:39:18;;;;;;;10.63;3.95;;;33.50;56.90;;;;;;4930899;29;20076;-64
2021/08/29 08:41:45;;;;;;;20.98;4.38;;;33.50;56.70;;;;;;4924831;29;20084;-64
2021/08/29 08:44:12;;;;;;;15.40;4.28;;;33.60;55.60;;;;;;4931234;29;20076;-65
2021/08/29 08:46:39;;;;;;;18.10;4.82;;;33.60;55.20;;;;;;4932169;29;20498;-64
2021/08/29 08:49:06;;;;;;;11.90;3.83;;;33.60;55.50;;;;;;4929754;29;20112;-65
2021/08/29 08:51:38;;;;;;;15.02;3.75;;;33.70;55.70;;;;;;4928193;29;20104;-64
2021/08/29 08:54:07;;;;;;;19.70;4.30;;;33.60;55.40;;;;;;4931075;29;20215;-64
2021/08/29 08:56:36;;;;;;;14.68;4.10;;;33.70;54.60;;;;;;4931284;29;20100;-65
2021/08/29 08:59:05;;;;;;;16.77;3.90;;;33.70;54.00;;;;;;4931575;29;20093;-65
2021/08/29 09:01:32;;;;;;;13.05;4.60;;;33.70;53.70;;;;;;4933798;29;20163;-65
2021/08/29 09:03:59;;;;;;;14.07;3.80;;;33.70;53.30;;;;;;4929222;29;20494;-65
2021/08/29 09:06:26;;;;;;;12.60;3.53;;;33.70;53.20;;;;;;4927304;29;20499;-65
2021/08/29 09:08:52;;;;;;;12.27;3.55;;;33.80;52.90;;;;;;4929136;29;20526;-65
2021/08/29 09:11:19;;;;;;;14.65;3.95;;;33.80;52.50;;;;;;4927846;29;20558;-64
2021/08/29 09:13:49;;;;;;;9.65;3.58;;;33.80;52.50;;;;;;4929760;29;20586;-65
2021/08/29 09:16:17;;;;;;;13.82;4.18;;;33.80;52.50;;;;;;4912970;29;20144;-64
2021/08/29 09:19:05;;;;;;;14.77;4.22;;;33.90;52.40;;;;;;4925653;29;20086;-65
2021/08/29 09:21:37;;;;;;;16.05;3.80;;;33.80;52.10;;;;;;4931962;29;20538;-65
2021/08/29 09:24:17;;;;;;;12.77;4.05;;;33.80;51.90;;;;;;4930298;29;20519;-64
2021/08/29 09:26:45;;;;;;;13.38;4.13;;;33.80;51.70;;;;;;4932471;29;20080;-64
2021/08/29 09:29:23;;;;;;;13.98;4.00;;;33.80;51.80;;;;;;4927719;29;20598;-66
2021/08/29 09:31:51;;;;;;;13.27;3.38;;;33.80;51.40;;;;;;4930728;29;20099;-64
2021/08/29 09:34:22;;;;;;;13.23;3.47;;;33.80;51.60;;;;;;4925642;29;20080;-64
2021/08/29 09:36:59;;;;;;;16.45;3.97;;;33.80;52.20;;;;;;4931704;29;20104;-64
2021/08/29 09:39:25;;;;;;;17.42;4.32;;;33.80;51.50;;;;;;4925846;29;20470;-64
2021/08/29 09:42:04;;;;;;;18.88;4.05;;;33.80;51.90;;;;;;4931196;29;20095;-64
2021/08/29 09:44:35;;;;;;;14.95;3.65;;;33.80;51.60;;;;;;4930556;29;20080;-64
2021/08/29 09:47:04;;;;;;;11.65;3.50;;;33.80;51.50;;;;;;4928442;29;20076;-64
2021/08/29 09:49:35;;;;;;;12.13;3.80;;;33.80;51.80;;;;;;4928562;29;20256;-65
2021/08/29 09:52:05;;;;;;;14.65;3.58;;;33.80;52.20;;;;;;4930008;29;20084;-65
2021/08/29 09:54:42;;;;;;;18.63;3.47;;;33.80;52.30;;;;;;4927403;29;20072;-64
2021/08/29 09:57:11;;;;;;;15.35;3.63;;;33.80;52.20;;;;;;4933378;29;20260;-64
2021/08/29 09:59:43;;;;;;;13.63;3.95;;;33.80;52.60;;;;;;4929689;29;20156;-63
2021/08/29 10:02:11;;;;;;;10.77;3.58;;;33.80;52.80;;;;;;4932559;29;20083;-64
2021/08/29 10:04:38;;;;;;;9.45;3.60;;;33.70;52.70;;;;;;4930848;29;20096;-64
2021/08/29 10:07:18;;;;;;;11.30;4.18;;;33.70;52.60;;;;;;4933059;29;20170;-64
2021/08/29 10:09:47;;;;;;;16.85;3.67;;;33.70;52.90;;;;;;4926322;29;20081;-64
2021/08/29 10:12:14;;;;;;;11.68;3.30;;;33.60;52.90;;;;;;4927398;29;20561;-63
2021/08/29 10:14:43;;;;;;;11.18;4.32;;;33.50;53.20;;;;;;4928005;29;20139;-63
2021/08/29 10:17:10;;;;;;;13.23;3.85;;;33.50;53.60;;;;;;4927374;29;20613;-64
2021/08/29 10:19:38;;;;;;;12.90;4.03;;;33.50;53.60;;;;;;4930891;29;20076;-64
2021/08/29 10:22:05;;;;;;;15.18;3.95;;;33.50;53.60;;;;;;4929592;29;20571;-63
2021/08/29 10:24:34;;;;;;;11.13;3.80;;;33.50;53.90;;;;;;4929415;29;20076;-64
2021/08/29 10:27:13;;;;;;;18.33;3.95;;;33.50;54.00;;;;;;4930179;29;20227;-64
2021/08/29 10:29:48;;;;;;;15.50;3.60;;;33.50;54.10;;;;;;4927189;29;20084;-63
2021/08/29 10:32:35;;;;;;;15.10;4.17;;;33.40;53.90;;;;;;4930730;29;20072;-64
2021/08/29 10:35:09;;;;;;;16.15;4.43;;;33.40;53.90;;;;;;4929522;29;20082;-63
2021/08/29 10:37:42;;;;;;;13.95;4.20;;;33.50;54.30;;;;;;4918745;29;20107;-65
2021/08/29 10:40:10;;;;;;;16.17;4.25;;;33.40;54.60;;;;;;4923982;29;20678;-64
2021/08/29 10:42:39;;;;;;;16.25;4.30;;;33.40;54.60;;;;;;4926582;29;20487;-65
2021/08/29 10:45:07;;;;;;;11.18;4.28;;;33.40;54.50;;;;;;4929090;29;20087;-64
2021/08/29 10:47:34;;;;;;;16.77;4.35;;;33.30;54.30;;;;;;4930069;29;20933;-65
2021/08/29 10:50:04;;;;;;;13.10;4.03;;;33.30;54.50;;;;;;4927881;29;20087;-64
2021/08/29 10:52:34;;;;;;;18.88;5.07;;;33.40;54.90;;;;;;4925614;29;20092;-64
2021/08/29 10:55:05;;;;;;;18.58;5.07;;;33.30;54.70;;;;;;4925794;29;20555;-64
2021/08/29 10:57:37;;;;;;;15.60;4.60;;;33.30;54.50;;;;;;4927258;29;20945;-64
2021/08/29 11:00:17;;;;;;;20.48;5.80;;;33.30;54.50;;;;;;4927688;29;20467;-64
2021/08/29 11:02:48;;;;;;;23.23;5.38;;;33.30;54.80;;;;;;4929699;29;20080;-64
2021/08/29 11:05:17;;;;;;;15.70;4.65;;;33.30;54.40;;;;;;4930735;29;20163;-64
2021/08/29 11:07:49;;;;;;;18.13;5.22;;;33.30;54.20;;;;;;4923959;29;20076;-64
2021/08/29 11:10:37;;;;;;;18.95;4.85;;;33.30;53.80;;;;;;4928258;29;20076;-64
2021/08/29 11:13:28;;;;;;;14.02;4.85;;;33.20;53.70;;;;;;4928384;29;20073;-64
2021/08/29 11:16:12;;;;;;;15.65;4.45;;;33.20;54.20;;;;;;4925285;29;20083;-64
2021/08/29 11:19:08;;;;;;;28.63;4.80;;;33.20;54.40;;;;;;4923261;29;20103;-64
2021/08/29 11:21:35;;;;;;;21.08;5.07;;;33.20;54.70;;;;;;4918995;29;20147;-64
2021/08/29 11:24:05;;;;;;;25.23;4.88;;;33.20;54.90;;;;;;4926529;29;20077;-64
2021/08/29 11:26:37;;;;;;;17.48;4.03;;;33.20;55.30;;;;;;4928336;29;20237;-64
2021/08/29 11:29:53;;;;;;;25.08;4.15;;;33.10;55.70;;;;;;4928971;29;20445;-64
2021/08/29 11:32:34;;;;;;;12.30;4.18;;;33.00;56.40;;;;;;4932237;29;20124;-63
2021/08/29 11:35:25;;;;;;;13.10;3.25;;;32.90;57.10;;;;;;4931756;29;21020;-63
2021/08/29 11:38:10;;;;;;;11.35;3.28;;;32.90;57.40;;;;;;4931939;29;20100;-63
2021/08/29 11:40:51;;;;;;;16.40;4.13;;;32.80;57.70;;;;;;4927980;29;20076;-63
2021/08/29 11:43:28;;;;;;;12.52;3.95;;;32.70;58.90;;;;;;4925246;29;20084;-63
2021/08/29 11:46:15;;;;;;;13.32;3.80;;;32.70;59.50;;;;;;4918265;29;20450;-63
2021/08/29 11:48:52;;;;;;;15.98;3.78;;;32.60;60.20;;;;;;4929068;29;20123;-63
2021/08/29 11:51:28;;;;;;;15.00;3.45;;;32.50;61.40;;;;;;4928839;29;20076;-63
2021/08/29 11:53:55;;;;;;;13.40;3.70;;;32.40;61.80;;;;;;4926643;29;20072;-63
2021/08/29 11:56:28;;;;;;;19.63;4.43;;;32.30;62.40;;;;;;4928802;29;20183;-63
2021/08/29 11:58:55;;;;;;;11.02;3.40;;;32.30;62.90;;;;;;4926604;29;20084;-64
2021/08/29 12:01:22;;;;;;;9.88;3.53;;;32.20;63.00;;;;;;4926911;29;20068;-64
2021/08/29 12:03:53;;;;;;;12.80;3.50;;;32.30;63.40;;;;;;4932300;29;20084;-64
2021/08/29 12:06:34;;;;;;;8.15;3.20;;;32.20;63.80;;;;;;4933311;29;20076;-64
2021/08/29 12:09:09;;;;;;;17.13;4.20;;;32.20;64.10;;;;;;4932946;29;20104;-64
2021/08/29 12:11:39;;;;;;;17.83;4.18;;;32.10;64.60;;;;;;4930635;29;20080;-64
2021/08/29 12:14:23;;;;;;;13.35;3.47;;;32.10;64.90;;;;;;4927930;29;20081;-64
2021/08/29 12:16:57;;;;;;;13.50;3.70;;;32.00;65.80;;;;;;4930448;29;20108;-64
2021/08/29 12:19:30;;;;;;;15.85;3.88;;;32.00;65.60;;;;;;4930956;29;20565;-64
2021/08/29 12:21:58;;;;;;;15.07;3.97;;;32.00;65.50;;;;;;4932995;29;20108;-64
2021/08/29 12:24:30;;;;;;;12.45;3.75;;;31.90;65.80;;;;;;4929344;29;20072;-64
2021/08/29 12:27:02;;;;;;;18.20;4.03;;;31.90;65.90;;;;;;4930219;29;20127;-64
2021/08/29 12:29:30;;;;;;;14.57;4.00;;;31.90;65.90;;;;;;4929077;29;20474;-64
2021/08/29 12:32:12;;;;;;;16.75;4.45;;;31.80;65.30;;;;;;4931032;29;20077;-64
2021/08/29 12:34:39;;;;;;;13.13;4.07;;;31.80;64.50;;;;;;4929722;29;20502;-64
2021/08/29 12:37:12;;;;;;;18.63;3.90;;;31.80;63.80;;;;;;4927377;29;20104;-64
2021/08/29 12:39:40;;;;;;;14.70;3.90;;;31.80;63.80;;;;;;4928146;29;20471;-64
2021/08/29 12:42:20;;;;;;;14.63;4.20;;;31.90;63.60;;;;;;4929237;29;20092;-64
2021/08/29 12:44:47;;;;;;;16.92;4.18;;;31.90;63.20;;;;;;4931220;29;20102;-63
2021/08/29 12:47:16;;;;;;;19.30;4.20;;;31.90;62.60;;;;;;4931419;29;20167;-64